PHOENIX SKY HARBOR INTL

KPHX (PHX)
Phoenix, Arizona
Towered

Vatsim Metar:
KPHX 161551Z 26003KT 10SM FEW050 SCT180 BKN250 11/04 A2998 RMK AO2 SLP147 T01110039 $

No ATC Online

Traffic

Inbound:
Ident
Type
Name
ETA
Phase
UAL231
H/B788/L
Duane Buck KDEN
Boarding
ASH5886
CRJ9/E
Arturo Carvajal SEQM
17:10 Z
Descent
SWA1188
B738/L
Nick Harris
12:36 Z
Taxiing Out
AAL1312
B752/L
Thomas Staliano
Boarding
SWA4473
B738/L
James Parker KMDW
Boarding
AAL1320
B738/L
Cameron Hilstad KRFD
Taxiing Out

Outbound:
Ident
Type
Name
Destination
Phase
CVA6111
B738/L
Rod Thompson CYQY
CYWG
Climb